createdAt,value
2023-04-23T00:00:44.332Z,14.49
2023-04-23T00:03:15.708Z,14.49
2023-04-23T00:05:47.565Z,14.47
2023-04-23T00:08:18.785Z,14.42
2023-04-23T00:10:47.714Z,14.40
2023-04-23T00:13:15.091Z,14.42
2023-04-23T00:15:42.368Z,14.37
2023-04-23T00:18:09.346Z,14.37
2023-04-23T00:20:37.202Z,14.36
2023-04-23T00:23:04.115Z,14.35
2023-04-23T00:25:32.641Z,14.34
2023-04-23T00:28:02.744Z,14.30
2023-04-23T00:30:29.790Z,14.33
2023-04-23T00:32:58.049Z,14.32
2023-04-23T00:35:25.232Z,14.32
2023-04-23T00:37:52.335Z,14.29
2023-04-23T00:40:20.554Z,14.30
2023-04-23T00:42:49.086Z,14.28
2023-04-23T00:45:16.876Z,14.27
2023-04-23T00:47:44.467Z,14.27
2023-04-23T00:50:13.233Z,14.25
2023-04-23T00:52:43.190Z,14.19
2023-04-23T00:55:10.255Z,14.19
2023-04-23T00:57:38.690Z,14.13
2023-04-23T01:00:10.261Z,14.06
2023-04-23T01:02:40.217Z,14.02
2023-04-23T01:05:09.924Z,13.98
2023-04-23T01:07:38.121Z,13.87
2023-04-23T01:10:06.294Z,13.83
2023-04-23T01:12:34.408Z,13.75
2023-04-23T01:15:04.362Z,13.71
2023-04-23T01:17:32.389Z,13.66
2023-04-23T01:19:59.368Z,13.60
2023-04-23T01:22:26.458Z,13.57
2023-04-23T01:25:04.280Z,13.50
2023-04-23T01:27:32.478Z,13.46
2023-04-23T01:29:59.481Z,13.42
2023-04-23T01:32:26.809Z,13.35
2023-04-23T01:35:01.340Z,13.32
2023-04-23T01:37:30.114Z,13.26
2023-04-23T01:39:57.172Z,13.19
2023-04-23T01:42:24.318Z,13.17
2023-04-23T01:45:07.142Z,13.08
2023-04-23T01:47:38.668Z,13.03
2023-04-23T01:50:06.706Z,13.01
2023-04-23T01:52:33.515Z,12.99
2023-04-23T01:55:04.205Z,12.96
2023-04-23T01:57:31.384Z,12.94
2023-04-23T02:00:11.582Z,12.90
2023-04-23T02:02:41.526Z,12.86
2023-04-23T02:05:21.518Z,12.84
2023-04-23T02:07:52.905Z,12.81
2023-04-23T02:10:20.715Z,12.81
2023-04-23T02:12:48.418Z,12.80
2023-04-23T02:15:20.658Z,12.83
2023-04-23T02:17:51.449Z,12.85
2023-04-23T02:20:19.562Z,12.88
2023-04-23T02:22:50.102Z,12.93
2023-04-23T02:25:18.634Z,12.94
2023-04-23T02:27:50.476Z,13.01
2023-04-23T02:30:22.906Z,13.01
2023-04-23T02:32:50.128Z,13.03
2023-04-23T02:35:18.798Z,13.03
2023-04-23T02:37:45.978Z,13.09
2023-04-23T02:40:13.048Z,13.13
2023-04-23T02:42:41.272Z,13.17
2023-04-23T02:45:11.045Z,13.21
2023-04-23T02:47:38.555Z,13.27
2023-04-23T02:50:07.797Z,13.32
2023-04-23T02:52:56.846Z,13.37
2023-04-23T02:55:32.612Z,13.43
2023-04-23T02:58:02.286Z,13.49
2023-04-23T03:00:29.538Z,13.54
2023-04-23T03:02:56.678Z,13.57
2023-04-23T03:05:26.902Z,13.63
2023-04-23T03:07:55.036Z,13.69
2023-04-23T03:10:24.934Z,13.73
2023-04-23T03:12:57.509Z,13.75
2023-04-23T03:15:29.765Z,13.80
2023-04-23T03:21:41.648Z,13.89
2023-04-23T03:24:23.850Z,13.95
2023-04-23T03:27:09.229Z,13.99
2023-04-23T03:29:52.560Z,14.06
2023-04-23T03:32:25.530Z,14.12
2023-04-23T03:35:19.248Z,14.17
2023-04-23T03:37:56.225Z,14.19
2023-04-23T03:40:26.512Z,14.24
2023-04-23T03:43:00.383Z,14.32
2023-04-23T03:45:33.797Z,14.33
2023-04-23T03:48:10.852Z,14.38
2023-04-23T03:51:50.084Z,14.44
2023-04-23T03:55:00.481Z,14.41
2023-04-23T03:57:44.962Z,14.42
2023-04-23T04:00:52.534Z,14.45
2023-04-23T04:11:48.186Z,14.47
2023-04-23T07:37:11.752Z,26.57
2023-04-23T07:39:56.110Z,27.51
2023-04-23T07:42:25.353Z,28.41
2023-04-23T07:45:04.579Z,29.31
2023-04-23T07:47:38.162Z,30.15
2023-04-23T07:50:10.914Z,30.97
2023-04-23T07:52:47.442Z,31.84
2023-04-23T07:55:14.569Z,32.65
2023-04-23T07:57:55.185Z,33.53
2023-04-23T08:00:24.919Z,34.37
2023-04-23T08:02:59.331Z,34.86
2023-04-23T08:05:37.541Z,35.34
2023-04-23T08:08:04.779Z,35.43
2023-04-23T08:10:55.437Z,35.67
2023-04-23T08:13:22.745Z,36.17
2023-04-23T08:16:01.878Z,36.79
2023-04-23T14:45:00.315Z,18.66
2023-04-23T14:47:27.096Z,18.55
2023-04-23T14:49:54.119Z,18.45
2023-04-23T14:52:20.951Z,18.40
2023-04-23T14:54:47.761Z,18.38
2023-04-23T14:57:14.573Z,18.37
2023-04-23T14:59:41.516Z,18.32
2023-04-23T15:02:08.721Z,18.26
2023-04-23T15:04:35.757Z,18.18
2023-04-23T15:07:02.573Z,18.12
2023-04-23T15:09:29.304Z,18.08
2023-04-23T15:11:56.066Z,18.08
2023-04-23T15:14:31.534Z,18.11
2023-04-23T15:16:58.505Z,18.14
2023-04-23T15:19:25.371Z,18.16
2023-04-23T15:21:52.089Z,18.17
2023-04-23T15:24:18.833Z,18.20
2023-04-23T15:26:46.203Z,18.25
2023-04-23T15:29:13.509Z,18.29
2023-04-23T15:31:40.788Z,18.27
2023-04-23T15:34:09.143Z,18.23
2023-04-23T15:36:37.439Z,18.14
2023-04-23T15:39:04.726Z,17.89
2023-04-23T15:41:31.541Z,17.54
2023-04-23T15:43:58.474Z,17.17
2023-04-23T15:46:25.228Z,16.84
2023-04-23T15:48:51.992Z,16.54
2023-04-23T15:51:18.998Z,16.26
2023-04-23T15:53:45.949Z,16.05
2023-04-23T15:56:12.846Z,15.92
2023-04-23T15:58:39.590Z,15.84
2023-04-23T16:01:07.293Z,15.78
2023-04-23T16:03:34.619Z,15.78
2023-04-23T16:06:01.737Z,15.82
2023-04-23T16:08:28.554Z,15.87
2023-04-23T16:10:56.994Z,15.93
2023-04-23T16:13:24.762Z,15.99
2023-04-23T16:15:51.563Z,16.03
2023-04-23T16:18:18.384Z,16.01
2023-04-23T16:20:45.228Z,16.00
2023-04-23T16:23:12.127Z,16.05
2023-04-23T16:25:39.189Z,16.09
2023-04-23T16:28:06.318Z,16.09
2023-04-23T16:30:33.820Z,16.08
2023-04-23T16:33:01.140Z,16.06
2023-04-23T16:35:28.692Z,16.06
2023-04-23T16:37:59.129Z,16.07
2023-04-23T16:40:26.717Z,16.09
2023-04-23T16:42:53.875Z,16.05
2023-04-23T16:45:23.208Z,16.05
2023-04-23T16:47:51.318Z,16.00
2023-04-23T16:50:23.242Z,16.01
2023-04-23T16:52:50.843Z,15.99
2023-04-23T16:55:17.992Z,15.99
2023-04-23T16:57:44.933Z,15.99
2023-04-23T17:00:12.772Z,16.00
2023-04-23T17:02:41.822Z,16.01
2023-04-23T17:05:09.836Z,15.97
2023-04-23T17:07:36.683Z,15.97
2023-04-23T17:10:03.580Z,15.96
2023-04-23T17:12:30.319Z,15.98
2023-04-23T17:14:57.117Z,16.02
2023-04-23T17:17:24.466Z,16.04
2023-04-23T17:19:51.228Z,16.07
2023-04-23T17:22:18.253Z,16.09
2023-04-23T17:24:45.237Z,16.09
2023-04-23T17:27:12.293Z,16.11
2023-04-23T17:29:39.104Z,16.10
2023-04-23T17:32:06.056Z,16.11
2023-04-23T17:34:34.339Z,16.13
2023-04-23T17:37:01.188Z,16.13
2023-04-23T17:39:28.049Z,16.11
2023-04-23T17:41:58.077Z,16.12
2023-04-23T17:44:25.065Z,16.15
2023-04-23T17:46:55.177Z,16.15
2023-04-23T17:49:22.900Z,16.18
2023-04-23T17:51:53.250Z,16.21
2023-04-23T17:54:20.307Z,16.22
2023-04-23T17:56:58.099Z,16.23
2023-04-23T17:59:42.113Z,16.24
2023-04-23T18:02:16.222Z,16.27
2023-04-23T18:04:46.863Z,16.26
2023-04-23T18:07:39.437Z,16.24
2023-04-23T18:10:08.719Z,16.22
2023-04-23T18:12:38.206Z,16.21
2023-04-23T18:15:06.431Z,16.21
2023-04-23T18:17:45.768Z,16.21
2023-04-23T18:20:16.121Z,16.20
2023-04-23T18:23:23.343Z,16.20
2023-04-23T18:25:50.727Z,16.18
2023-04-23T18:45:39.022Z,15.88
2023-04-23T18:48:37.945Z,15.80
2023-04-23T18:51:24.283Z,15.72
2023-04-23T18:53:56.218Z,15.68
2023-04-23T18:56:30.667Z,15.60
2023-04-23T18:59:01.255Z,15.55
2023-04-23T19:01:32.154Z,15.47
2023-04-23T19:03:59.680Z,15.45
2023-04-23T19:06:29.568Z,15.42
2023-04-23T19:08:59.793Z,15.34
2023-04-23T19:11:30.298Z,15.33
2023-04-23T19:14:06.442Z,15.29
2023-04-23T19:16:44.038Z,15.27
2023-04-23T19:19:14.368Z,15.25
2023-04-23T19:21:49.102Z,15.24
2023-04-23T19:24:17.746Z,15.25
2023-04-23T19:26:47.603Z,15.18
2023-04-23T19:29:18.048Z,15.11
2023-04-23T19:31:47.747Z,15.07
2023-04-23T19:34:20.220Z,15.07
2023-04-23T19:36:47.410Z,15.09
2023-04-23T19:39:20.614Z,15.11
2023-04-23T19:42:37.806Z,15.12
2023-04-23T19:45:28.048Z,15.13
2023-04-23T19:48:07.379Z,15.15
2023-04-23T19:50:44.951Z,15.19
2023-04-23T19:53:25.204Z,15.20
2023-04-23T19:55:53.480Z,15.22
2023-04-23T19:58:42.210Z,15.24
2023-04-23T20:01:11.042Z,15.29
2023-04-23T20:04:27.234Z,15.28
2023-04-23T20:07:24.888Z,15.28
2023-04-23T20:10:22.978Z,15.29
2023-04-23T20:12:51.155Z,15.29
2023-04-23T20:23:39.330Z,15.22
2023-04-23T20:32:04.044Z,15.33
2023-04-23T20:34:44.609Z,15.30
2023-04-23T20:41:55.056Z,15.30
2023-04-23T20:48:25.334Z,15.30
2023-04-23T20:50:52.682Z,15.32
2023-04-23T20:53:19.694Z,15.32
2023-04-23T20:55:46.658Z,15.36
2023-04-23T20:58:13.696Z,15.38
2023-04-23T21:00:41.448Z,15.38
2023-04-23T21:03:08.334Z,15.39
2023-04-23T21:05:35.289Z,15.38
2023-04-23T21:34:42.052Z,15.14
2023-04-23T22:25:12.718Z,14.68
2023-04-23T22:27:41.121Z,14.69
2023-04-23T22:30:22.371Z,14.67
2023-04-23T22:32:49.225Z,14.66
2023-04-23T22:35:16.214Z,14.62
2023-04-23T22:37:43.079Z,14.57
2023-04-23T22:40:10.591Z,14.50
2023-04-23T22:42:37.567Z,14.45
2023-04-23T22:45:06.169Z,14.39
2023-04-23T22:47:33.262Z,14.32
2023-04-23T22:50:00.449Z,14.28
2023-04-23T22:52:27.562Z,14.25
2023-04-23T22:54:56.591Z,14.22
2023-04-23T22:57:24.215Z,14.15
2023-04-23T22:59:51.028Z,14.10
2023-04-23T23:02:20.226Z,14.08
2023-04-23T23:04:47.120Z,14.02
2023-04-23T23:07:14.634Z,14.00
2023-04-23T23:09:41.725Z,14.01
2023-04-23T23:12:08.876Z,13.99
2023-04-23T23:14:37.891Z,14.03
2023-04-23T23:17:06.133Z,14.05
2023-04-23T23:19:33.199Z,14.05
2023-04-23T23:22:00.102Z,14.04
2023-04-23T23:24:26.973Z,14.01
2023-04-23T23:26:53.756Z,13.99
2023-04-23T23:29:20.787Z,13.98
2023-04-23T23:32:00.333Z,13.95
2023-04-23T23:34:27.267Z,13.93
2023-04-23T23:36:54.175Z,13.92
2023-04-23T23:43:04.857Z,13.89
2023-04-23T23:45:34.294Z,13.88
2023-04-23T23:48:01.342Z,13.92
2023-04-23T23:50:31.891Z,13.96
2023-04-23T23:52:59.334Z,13.98
2023-04-23T23:55:36.331Z,14.02
2023-04-23T23:58:32.785Z,14.03
